createdAt,value
2022-09-22T00:01:29.354Z,99585.47
2022-09-22T00:04:00.443Z,99586.72
2022-09-22T00:06:31.788Z,99583.25
2022-09-22T00:09:01.312Z,99581.84
2022-09-22T00:11:33.449Z,99579.34
2022-09-22T00:14:29.432Z,99581.25
2022-09-22T00:17:03.845Z,99577.44
2022-09-22T00:25:10.424Z,99579.78
2022-09-22T00:27:37.627Z,99578.34
2022-09-22T00:30:05.624Z,99575.63
2022-09-22T00:32:32.789Z,99571.06
2022-09-22T00:34:59.945Z,99569.84
2022-09-22T00:37:27.158Z,99577.44
2022-09-22T00:39:54.423Z,99573.03
2022-09-22T00:42:22.324Z,99571.13
2022-09-22T00:44:49.838Z,99572.44
2022-09-22T00:47:32.907Z,99582.50
2022-09-22T00:50:09.401Z,99578.94
2022-09-22T00:53:02.407Z,99573.69
2022-09-22T00:55:45.070Z,99575.81
2022-09-22T00:58:17.645Z,99574.38
2022-09-22T01:00:45.733Z,99582.78
2022-09-22T01:03:20.485Z,99582.53
2022-09-22T01:05:51.942Z,99581.28
2022-09-22T01:08:21.792Z,99579.16
2022-09-22T01:10:50.216Z,99579.16
2022-09-22T01:13:36.175Z,99573.09
2022-09-22T01:16:34.679Z,99572.69
2022-09-22T01:19:36.060Z,99570.66
2022-09-22T01:22:06.180Z,99574.91
2022-09-22T01:24:54.702Z,99574.91
2022-09-22T01:28:31.986Z,99569.88
2022-09-22T01:32:03.573Z,99571.75
2022-09-22T01:34:50.132Z,99556.91
2022-09-22T01:37:27.102Z,99571.16
2022-09-22T01:40:12.563Z,99566.75
2022-09-22T01:42:49.746Z,99568.44
2022-09-22T01:45:22.987Z,99564.47
2022-09-22T01:48:11.606Z,99563.66
2022-09-22T01:50:49.720Z,99561.38
2022-09-22T01:53:22.850Z,99556.75
2022-09-22T01:55:59.162Z,99556.97
2022-09-22T01:58:33.381Z,99543.78
2022-09-22T02:01:18.176Z,99552.19
2022-09-22T02:03:56.840Z,99537.31
2022-09-22T02:06:35.967Z,99542.16
2022-09-22T02:09:09.980Z,99531.09
2022-09-22T02:11:37.746Z,99532.59
2022-09-22T02:14:06.320Z,99533.66
2022-09-22T02:16:34.271Z,99528.22
2022-09-22T02:19:19.977Z,99524.44
2022-09-22T02:21:48.822Z,99526.53
2022-09-22T02:24:42.538Z,99526.16
2022-09-22T02:27:26.346Z,99533.09
2022-09-22T02:30:13.064Z,99528.09
2022-09-22T02:32:45.573Z,99525.19
2022-09-22T02:35:13.386Z,99509.91
2022-09-22T02:37:56.188Z,99520.19
2022-09-22T02:40:48.745Z,99525.84
2022-09-22T02:43:44.076Z,99525.69
2022-09-22T02:46:24.255Z,99515.69
2022-09-22T02:49:00.762Z,99515.25
2022-09-22T02:51:33.074Z,99523.28
2022-09-22T02:54:01.837Z,99505.25
2022-09-22T02:56:29.620Z,99528.75
2022-09-22T02:58:58.594Z,99523.06
2022-09-22T03:01:26.595Z,99515.50
2022-09-22T03:03:54.214Z,99526.41
2022-09-22T03:06:21.458Z,99522.84
2022-09-22T03:08:48.657Z,99529.72
2022-09-22T03:11:15.797Z,99530.34
2022-09-22T03:13:42.925Z,99518.78
2022-09-22T03:16:10.314Z,99515.84
2022-09-22T03:18:37.640Z,99522.75
2022-09-22T03:21:05.291Z,99519.34
2022-09-22T03:23:32.464Z,99506.34
2022-09-22T03:25:59.639Z,99510.72
2022-09-22T03:28:26.866Z,99519.75
2022-09-22T03:30:54.087Z,99523.06
2022-09-22T03:33:21.310Z,99529.34
2022-09-22T03:35:48.473Z,99523.06
2022-09-22T03:38:15.675Z,99528.31
2022-09-22T03:40:51.079Z,99534.16
2022-09-22T03:43:18.603Z,99532.25
2022-09-22T03:45:46.032Z,99535.38
2022-09-22T03:48:13.577Z,99525.69
2022-09-22T03:50:40.825Z,99527.75
2022-09-22T03:53:08.040Z,99514.97
2022-09-22T03:55:35.362Z,99519.97
2022-09-22T03:58:03.867Z,99523.75
2022-09-22T04:00:31.128Z,99522.69
2022-09-22T04:02:59.198Z,99522.69
2022-09-22T04:05:26.754Z,99519.34
2022-09-22T04:07:54.019Z,99515.63
2022-09-22T04:10:21.474Z,99518.53
2022-09-22T04:12:49.030Z,99513.06
2022-09-22T04:15:16.348Z,99507.63
2022-09-22T04:17:45.148Z,99514.28
2022-09-22T04:20:12.388Z,99512.41
2022-09-22T04:22:39.883Z,99521.84
2022-09-22T04:25:08.352Z,99522.69
2022-09-22T04:27:35.551Z,99503.59
2022-09-22T04:30:03.204Z,99512.63
2022-09-22T04:32:33.360Z,99505.91
2022-09-22T04:35:00.716Z,99515.72
2022-09-22T04:37:28.050Z,99513.00
2022-09-22T04:39:55.873Z,99509.22
2022-09-22T04:42:23.111Z,99516.34
2022-09-22T04:44:50.330Z,99519.28
2022-09-22T04:47:17.711Z,99520.13
2022-09-22T04:49:45.130Z,99518.03
2022-09-22T04:52:12.320Z,99519.28
2022-09-22T04:54:39.551Z,99517.47
2022-09-22T04:57:06.775Z,99534.88
2022-09-22T04:59:35.412Z,99531.31
2022-09-22T05:02:03.172Z,99531.78
2022-09-22T05:04:30.433Z,99541.78
2022-09-22T05:06:57.679Z,99540.13
2022-09-22T05:09:24.856Z,99535.47
2022-09-22T05:11:52.086Z,99534.44
2022-09-22T05:14:24.075Z,99541.78
2022-09-22T05:16:53.455Z,99533.16
2022-09-22T05:19:21.270Z,99539.44
2022-09-22T05:21:48.555Z,99547.41
2022-09-22T05:24:15.852Z,99543.00
2022-09-22T05:26:43.038Z,99545.50
2022-09-22T05:29:10.373Z,99548.44
2022-09-22T05:31:37.654Z,99540.72
2022-09-22T05:34:04.940Z,99548.31
2022-09-22T05:36:32.278Z,99543.28
2022-09-22T05:38:59.826Z,99545.16
2022-09-22T05:41:27.095Z,99548.13
2022-09-22T05:43:54.259Z,99548.72
2022-09-22T05:46:21.627Z,99548.72
2022-09-22T05:48:48.898Z,99545.16
2022-09-22T05:51:16.176Z,99548.50
2022-09-22T05:53:43.361Z,99541.38
2022-09-22T05:56:10.525Z,99544.09
2022-09-22T05:58:37.789Z,99545.16
2022-09-22T06:01:05.134Z,99543.91
2022-09-22T06:03:32.426Z,99550.56
2022-09-22T06:05:59.610Z,99560.19
2022-09-22T06:08:26.777Z,99555.13
2022-09-22T06:10:54.002Z,99561.19
2022-09-22T06:13:21.292Z,99562.88
2022-09-22T06:15:49.022Z,99567.50
2022-09-22T06:18:23.383Z,99558.84
2022-09-22T06:20:51.576Z,99561.59
2022-09-22T06:23:19.146Z,99561.59
2022-09-22T06:25:46.346Z,99562.63
2022-09-22T06:28:14.686Z,99562.63
2022-09-22T06:30:43.072Z,99561.78
2022-09-22T06:33:12.057Z,99551.72
2022-09-22T06:35:43.025Z,99558.84
2022-09-22T06:38:15.090Z,99550.69
2022-09-22T06:40:43.187Z,99560.28
2022-09-22T06:43:24.256Z,99555.69
2022-09-22T06:45:52.812Z,99562.13
2022-09-22T06:48:23.804Z,99558.94
2022-09-22T06:50:54.361Z,99561.00
2022-09-22T06:53:25.136Z,99567.31
2022-09-22T06:55:54.201Z,99555.09
2022-09-22T06:58:22.518Z,99557.63
2022-09-22T07:00:50.748Z,99549.88
2022-09-22T07:03:22.749Z,99568.91
2022-09-22T07:06:01.076Z,99567.03
2022-09-22T07:08:31.039Z,99567.41
2022-09-22T07:11:04.453Z,99567.78
2022-09-22T07:13:33.973Z,99566.50
2022-09-22T07:16:08.216Z,99569.00
2022-09-22T07:18:36.535Z,99565.88
2022-09-22T07:21:09.452Z,99556.88
2022-09-22T07:23:36.830Z,99566.06
2022-09-22T07:26:13.011Z,99554.28
2022-09-22T07:28:41.418Z,99548.16
2022-09-22T07:31:12.605Z,99557.09
2022-09-22T07:33:43.254Z,99555.59
2022-09-22T07:36:14.369Z,99559.78
2022-09-22T07:38:43.765Z,99559.13
2022-09-22T07:41:14.740Z,99563.66
2022-09-22T07:43:42.662Z,99568.44
2022-09-22T07:46:09.945Z,99562.31
2022-09-22T07:48:38.270Z,99564.97
2022-09-22T07:51:12.898Z,99554.66
2022-09-22T07:53:43.005Z,99566.94
2022-09-22T07:56:13.514Z,99566.63
2022-09-22T07:58:51.701Z,99560.94
2022-09-22T08:01:22.476Z,99575.72
2022-09-22T08:03:51.016Z,99560.31
2022-09-22T08:06:23.701Z,99558.31
2022-09-22T08:08:56.456Z,99569.75
2022-09-22T08:11:27.369Z,99575.25
2022-09-22T08:14:02.891Z,99561.72
2022-09-22T08:16:34.500Z,99567.47
2022-09-22T08:19:11.437Z,99563.78
2022-09-22T08:21:48.339Z,99577.25
2022-09-22T08:24:22.909Z,99564.66
2022-09-22T08:26:53.146Z,99558.84
2022-09-22T08:29:21.520Z,99555.78
2022-09-22T08:31:49.728Z,99560.09
2022-09-22T08:34:18.200Z,99568.88
2022-09-22T08:36:48.893Z,99557.84
2022-09-22T08:39:18.189Z,99560.56
2022-09-22T08:41:59.899Z,99559.50
2022-09-22T08:44:37.520Z,99545.44
2022-09-22T08:47:05.405Z,99554.34
2022-09-22T08:50:06.223Z,99546.72
2022-09-22T08:52:48.928Z,99549.06
2022-09-22T08:55:23.992Z,99551.66
2022-09-22T08:58:23.655Z,99541.16
2022-09-22T09:01:19.185Z,99541.59
2022-09-22T09:04:36.314Z,99540.16
2022-09-22T09:07:37.302Z,99537.47
2022-09-22T09:10:16.238Z,99528.94
2022-09-22T09:13:00.880Z,99538.19
2022-09-22T09:15:58.373Z,99537.88
2022-09-22T09:18:39.503Z,99525.94
2022-09-22T09:21:14.659Z,99526.50
2022-09-22T09:29:19.139Z,99535.66
2022-09-22T09:31:53.826Z,99536.50
2022-09-22T09:34:28.969Z,99525.59
2022-09-22T09:37:07.488Z,99521.00
2022-09-22T09:39:39.188Z,99521.09
2022-09-22T09:42:24.846Z,99523.94
2022-09-22T09:44:54.161Z,99528.41
2022-09-22T09:47:59.142Z,99524.59
2022-09-22T09:50:32.300Z,99519.25
2022-09-22T09:53:00.771Z,99515.16
2022-09-22T09:55:28.207Z,99514.94
2022-09-22T09:58:33.126Z,99519.06
2022-09-22T10:01:01.517Z,99518.06
2022-09-22T10:03:35.467Z,99515.72
2022-09-22T10:06:07.249Z,99505.69
2022-09-22T10:08:47.283Z,99509.59
2022-09-22T10:11:15.245Z,99506.09
2022-09-22T10:13:44.473Z,99504.31
2022-09-22T10:16:23.863Z,99502.56
2022-09-22T10:19:13.349Z,99517.44
2022-09-22T10:21:40.550Z,99520.25
2022-09-22T10:24:29.774Z,99505.75
2022-09-22T10:26:57.484Z,99510.53
2022-09-22T10:29:25.830Z,99514.75
2022-09-22T10:32:16.404Z,99532.88
2022-09-22T10:34:48.903Z,99536.88
2022-09-22T10:37:29.624Z,99541.94
2022-09-22T10:40:02.242Z,99552.03
2022-09-22T10:42:40.976Z,99552.47
2022-09-22T10:45:15.416Z,99544.09
2022-09-22T10:48:00.358Z,99540.38
2022-09-22T10:50:58.837Z,99544.06
2022-09-22T10:54:07.269Z,99539.22
2022-09-22T10:56:53.424Z,99530.59
2022-09-22T10:59:47.672Z,99527.75
2022-09-22T11:02:39.450Z,99527.25
2022-09-22T11:05:43.944Z,99517.41
2022-09-22T11:08:36.929Z,99529.66
2022-09-22T11:11:45.907Z,99515.75
2022-09-22T11:14:19.045Z,99522.72
2022-09-22T11:17:16.379Z,99507.66
2022-09-22T11:20:09.481Z,99503.91
2022-09-22T11:23:08.048Z,99500.31
2022-09-22T11:26:07.635Z,99498.97
2022-09-22T11:29:24.714Z,99492.41
2022-09-22T11:32:16.131Z,99495.47
2022-09-22T11:35:01.638Z,99495.78
2022-09-22T11:37:50.434Z,99490.38
2022-09-22T11:40:52.322Z,99487.44
2022-09-22T11:43:46.605Z,99490.00
2022-09-22T11:46:38.465Z,99487.91
2022-09-22T11:49:26.724Z,99482.16
2022-09-22T11:52:31.426Z,99480.25
2022-09-22T11:55:30.669Z,99482.47
2022-09-22T11:58:04.804Z,99477.56
2022-09-22T12:00:51.578Z,99474.84
2022-09-22T12:03:31.835Z,99472.19
2022-09-22T12:06:09.516Z,99467.50
2022-09-22T12:08:56.607Z,99472.47
2022-09-22T12:11:28.317Z,99475.44
2022-09-22T12:13:58.051Z,99469.13
2022-09-22T12:16:51.182Z,99474.06
2022-09-22T12:19:32.931Z,99469.31
2022-09-22T12:22:15.175Z,99466.00
2022-09-22T12:24:47.497Z,99456.91
2022-09-22T12:27:26.226Z,99461.34
2022-09-22T12:30:04.542Z,99465.47
2022-09-22T12:32:42.642Z,99458.59
2022-09-22T12:35:31.480Z,99451.16
2022-09-22T12:38:02.823Z,99443.47
2022-09-22T12:40:37.364Z,99444.84
2022-09-22T12:43:04.925Z,99436.84
2022-09-22T12:45:34.373Z,99443.75
2022-09-22T12:48:22.285Z,99439.94
2022-09-22T12:50:51.078Z,99435.25
2022-09-22T12:53:21.800Z,99428.66
2022-09-22T12:55:57.126Z,99430.09
2022-09-22T12:58:30.220Z,99436.97
2022-09-22T13:01:31.717Z,99433.69
2022-09-22T13:04:16.954Z,99430.69
2022-09-22T13:06:44.100Z,99425.50
2022-09-22T13:09:24.340Z,99422.22
2022-09-22T13:12:13.280Z,99424.19
2022-09-22T13:15:08.268Z,99420.13
2022-09-22T13:17:50.353Z,99427.84
2022-09-22T13:20:30.397Z,99425.09
2022-09-22T13:23:14.118Z,99429.75
2022-09-22T13:25:44.697Z,99422.34
2022-09-22T13:28:26.034Z,99417.69
2022-09-22T13:31:13.640Z,99412.44
2022-09-22T13:33:41.111Z,99410.75
2022-09-22T13:36:08.518Z,99403.03
2022-09-22T13:38:45.774Z,99404.13
2022-09-22T13:41:19.104Z,99404.09
2022-09-22T13:44:11.845Z,99407.66
2022-09-22T13:46:49.192Z,99402.97
2022-09-22T13:49:39.986Z,99395.84
2022-09-22T13:52:23.435Z,99388.41
2022-09-22T13:54:56.998Z,99397.25
2022-09-22T13:57:29.951Z,99392.28
2022-09-22T14:00:04.753Z,99389.28
2022-09-22T14:02:32.861Z,99391.25
2022-09-22T14:05:05.689Z,99384.16
2022-09-22T14:07:49.643Z,99379.53
2022-09-22T14:10:27.795Z,99383.97
2022-09-22T14:12:55.954Z,99378.78
2022-09-22T14:15:43.572Z,99383.25
2022-09-22T14:18:19.791Z,99384.63
2022-09-22T14:20:48.373Z,99385.22
2022-09-22T14:23:37.248Z,99383.00
2022-09-22T14:26:24.331Z,99388.50
2022-09-22T14:28:53.691Z,99387.44
2022-09-22T14:31:29.472Z,99388.84
2022-09-22T14:33:57.480Z,99391.31
2022-09-22T14:36:26.365Z,99400.69
2022-09-22T14:39:09.705Z,99394.94
2022-09-22T14:41:38.402Z,99396.31
2022-09-22T14:44:32.643Z,99386.97
2022-09-22T14:47:29.098Z,99383.41
2022-09-22T14:50:20.488Z,99389.72
2022-09-22T14:52:58.180Z,99388.91
2022-09-22T14:55:34.504Z,99396.91
2022-09-22T14:58:12.100Z,99395.78
2022-09-22T15:01:20.428Z,99395.78
2022-09-22T15:04:23.371Z,99387.81
2022-09-22T15:06:56.863Z,99397.41
2022-09-22T15:09:38.833Z,99393.53
2022-09-22T15:12:25.731Z,99392.13
2022-09-22T15:15:00.244Z,99391.25
2022-09-22T15:17:54.060Z,99397.03
2022-09-22T15:20:57.118Z,99395.91
2022-09-22T15:23:31.757Z,99397.78
2022-09-22T15:26:04.103Z,99398.88
2022-09-22T15:28:37.207Z,99397.72
2022-09-22T15:31:06.121Z,99396.06
2022-09-22T15:33:33.667Z,99395.50
2022-09-22T15:36:13.043Z,99398.00
2022-09-22T15:38:41.312Z,99386.69
2022-09-22T15:41:11.865Z,99390.78
2022-09-22T15:43:40.786Z,99386.38
2022-09-22T15:46:23.312Z,99385.00
2022-09-22T15:48:50.490Z,99394.59
2022-09-22T15:51:17.659Z,99391.50
2022-09-22T15:53:45.528Z,99396.72
2022-09-22T15:56:19.960Z,99390.91
2022-09-22T15:58:49.938Z,99394.19
2022-09-22T16:01:17.735Z,99401.84
2022-09-22T16:03:46.164Z,99405.13
2022-09-22T16:06:17.058Z,99409.47
2022-09-22T16:08:51.602Z,99406.66
2022-09-22T16:11:31.155Z,99414.84
2022-09-22T16:14:03.514Z,99410.97
2022-09-22T16:16:33.621Z,99416.13
2022-09-22T16:19:01.441Z,99424.63
2022-09-22T16:21:38.673Z,99425.41
2022-09-22T16:24:10.208Z,99426.19
2022-09-22T16:26:39.953Z,99423.34
2022-09-22T16:29:08.666Z,99428.53
2022-09-22T16:31:37.307Z,99424.38
2022-09-22T16:34:06.759Z,99421.31
2022-09-22T16:36:36.498Z,99421.50
2022-09-22T16:39:05.503Z,99423.66
2022-09-22T16:41:35.225Z,99432.44
2022-09-22T16:44:03.980Z,99425.19
2022-09-22T16:46:33.785Z,99427.91
2022-09-22T16:49:05.807Z,99426.75
2022-09-22T16:51:36.440Z,99422.84
2022-09-22T16:54:07.039Z,99434.59
2022-09-22T16:56:37.895Z,99433.66
2022-09-22T16:59:05.965Z,99434.69
2022-09-22T17:01:37.743Z,99434.63
2022-09-22T17:04:07.692Z,99428.44
2022-09-22T17:06:37.740Z,99437.94
2022-09-22T17:09:06.845Z,99435.63
2022-09-22T17:11:39.237Z,99452.84
2022-09-22T17:14:13.660Z,99444.78
2022-09-22T17:16:48.725Z,99439.97
2022-09-22T17:19:26.250Z,99447.81
2022-09-22T17:21:55.807Z,99454.56
2022-09-22T17:24:25.492Z,99456.38
2022-09-22T17:26:56.149Z,99453.53
2022-09-22T17:29:26.886Z,99458.94
2022-09-22T17:32:02.708Z,99463.50
2022-09-22T17:34:33.010Z,99460.66
2022-09-22T17:37:01.389Z,99460.56
2022-09-22T17:39:30.124Z,99460.50
2022-09-22T17:41:57.402Z,99466.94
2022-09-22T17:44:26.696Z,99465.53
2022-09-22T17:47:12.642Z,99474.47
2022-09-22T17:49:59.095Z,99471.63
2022-09-22T17:52:29.688Z,99473.44
2022-09-22T17:55:09.181Z,99464.31
2022-09-22T17:57:42.815Z,99469.66
2022-09-22T18:00:24.596Z,99472.06
2022-09-22T18:02:54.211Z,99483.50
2022-09-22T18:05:26.793Z,99474.44
2022-09-22T18:07:58.607Z,99483.16
2022-09-22T18:10:32.327Z,99485.53
2022-09-22T18:13:00.991Z,99494.25
2022-09-22T18:15:29.278Z,99491.16
2022-09-22T18:17:58.117Z,99493.53
2022-09-22T18:20:26.311Z,99496.53
2022-09-22T18:22:54.797Z,99497.59
2022-09-22T18:25:25.531Z,99498.06
2022-09-22T18:27:53.608Z,99497.97
2022-09-22T18:30:20.948Z,99501.41
2022-09-22T18:32:48.986Z,99496.66
2022-09-22T18:35:16.844Z,99503.19
2022-09-22T18:37:44.195Z,99515.47
2022-09-22T18:40:12.665Z,99497.25
2022-09-22T18:42:41.522Z,99500.25
2022-09-22T18:45:11.089Z,99502.00
2022-09-22T18:47:40.882Z,99504.38
2022-09-22T18:50:09.881Z,99512.81
2022-09-22T18:52:37.393Z,99509.50
2022-09-22T18:55:09.396Z,99513.78
2022-09-22T18:57:36.629Z,99509.38
2022-09-22T19:00:05.840Z,99509.84
2022-09-22T19:02:33.121Z,99521.03
2022-09-22T19:05:00.318Z,99520.66
2022-09-22T19:07:43.098Z,99523.25
2022-09-22T19:10:14.184Z,99533.63
2022-09-22T19:12:42.720Z,99527.53
2022-09-22T19:15:16.759Z,99526.97
2022-09-22T19:17:47.007Z,99530.75
2022-09-22T19:20:18.490Z,99530.75
2022-09-22T19:22:47.079Z,99528.25
2022-09-22T19:25:16.076Z,99520.16
2022-09-22T19:27:43.423Z,99536.56
2022-09-22T19:30:11.646Z,99531.19
2022-09-22T19:32:40.389Z,99537.41
2022-09-22T19:35:08.992Z,99537.00
2022-09-22T19:37:36.715Z,99537.69
2022-09-22T19:40:05.872Z,99534.38
2022-09-22T19:42:39.222Z,99534.38
2022-09-22T19:45:07.903Z,99551.84
2022-09-22T19:47:35.158Z,99544.34
2022-09-22T19:50:02.269Z,99542.91
2022-09-22T19:52:29.472Z,99539.47
2022-09-22T19:54:56.857Z,99547.41
2022-09-22T19:57:24.310Z,99551.19
2022-09-22T19:59:51.506Z,99539.22
2022-09-22T20:02:20.840Z,99552.66
2022-09-22T20:04:48.044Z,99543.00
2022-09-22T20:07:15.387Z,99549.19
2022-09-22T20:09:45.931Z,99556.41
2022-09-22T20:15:05.936Z,99554.72
2022-09-22T20:17:33.131Z,99548.28
2022-09-22T20:20:00.721Z,99551.72
2022-09-22T20:22:30.351Z,99553.84
2022-09-22T20:25:01.498Z,99553.69
2022-09-22T20:27:32.995Z,99555.22
2022-09-22T20:30:00.873Z,99553.19
2022-09-22T20:32:34.618Z,99547.13
2022-09-22T20:35:01.975Z,99558.06
2022-09-22T20:37:31.917Z,99554.97
2022-09-22T20:40:07.520Z,99551.81
2022-09-22T20:42:34.811Z,99547.88
2022-09-22T20:45:01.983Z,99548.13
2022-09-22T20:47:29.127Z,99550.13
2022-09-22T20:49:57.169Z,99550.56
2022-09-22T20:52:24.295Z,99549.97
2022-09-22T20:54:51.481Z,99546.22
2022-09-22T20:57:18.655Z,99547.28
2022-09-22T20:59:46.178Z,99542.06
2022-09-22T21:02:15.054Z,99550.47
2022-09-22T21:04:42.775Z,99549.66
2022-09-22T21:07:11.600Z,99549.06
2022-09-22T21:09:57.616Z,99549.28
2022-09-22T21:12:30.734Z,99541.50
2022-09-22T21:14:58.861Z,99548.03
2022-09-22T21:17:27.874Z,99542.19
2022-09-22T21:19:57.859Z,99555.22
2022-09-22T21:22:28.223Z,99550.44
2022-09-22T21:24:56.416Z,99553.03
2022-09-22T21:27:25.145Z,99551.56
2022-09-22T21:29:53.265Z,99550.97
2022-09-22T21:32:20.761Z,99552.50
2022-09-22T21:34:48.044Z,99547.72
2022-09-22T21:37:15.198Z,99545.19
2022-09-22T21:39:42.422Z,99545.03
2022-09-22T21:42:09.647Z,99539.19
2022-09-22T21:44:36.759Z,99545.28
2022-09-22T21:47:04.907Z,99540.88
2022-09-22T21:49:32.975Z,99538.13
2022-09-22T21:52:01.193Z,99534.19
2022-09-22T21:54:28.417Z,99536.91
2022-09-22T21:56:56.700Z,99535.47
2022-09-22T21:59:23.888Z,99531.09
2022-09-22T22:01:51.112Z,99539.88
2022-09-22T22:04:18.421Z,99550.38
2022-09-22T22:06:46.825Z,99546.44
2022-09-22T22:09:23.281Z,99540.81
2022-09-22T22:11:57.339Z,99537.50
2022-09-22T22:14:34.934Z,99536.03
2022-09-22T22:17:02.394Z,99541.09
2022-09-22T22:19:29.999Z,99541.34
2022-09-22T22:21:57.275Z,99531.50
2022-09-22T22:24:28.850Z,99541.94
2022-09-22T22:27:10.177Z,99538.75
2022-09-22T22:29:38.739Z,99527.47
2022-09-22T22:32:09.171Z,99523.91
2022-09-22T22:34:36.844Z,99520.78
2022-09-22T22:37:07.133Z,99523.97
2022-09-22T22:39:34.553Z,99516.25
2022-09-22T22:42:01.711Z,99523.81
2022-09-22T22:44:29.050Z,99515.84
2022-09-22T22:46:56.194Z,99511.88
2022-09-22T22:49:23.408Z,99507.34
2022-09-22T22:51:52.270Z,99511.97
2022-09-22T22:54:19.519Z,99506.13
2022-09-22T22:56:50.338Z,99517.84
2022-09-22T22:59:18.961Z,99523.97
2022-09-22T23:01:46.316Z,99522.50
2022-09-22T23:04:13.713Z,99516.47
2022-09-22T23:06:47.761Z,99523.59
2022-09-22T23:09:17.263Z,99515.84
2022-09-22T23:11:46.466Z,99514.19
2022-09-22T23:14:16.210Z,99508.75
2022-09-22T23:16:49.603Z,99510.44
2022-09-22T23:19:18.610Z,99511.06
2022-09-22T23:21:46.488Z,99506.03
2022-09-22T23:24:16.600Z,99504.59
2022-09-22T23:26:45.931Z,99498.78
2022-09-22T23:29:13.590Z,99509.50
2022-09-22T23:31:40.881Z,99498.59
2022-09-22T23:34:08.183Z,99510.31
2022-09-22T23:36:35.738Z,99500.47
2022-09-22T23:39:04.351Z,99500.25
2022-09-22T23:41:37.315Z,99497.97
2022-09-22T23:44:08.655Z,99499.84
2022-09-22T23:46:37.555Z,99492.50
2022-09-22T23:49:06.179Z,99488.94
2022-09-22T23:51:33.355Z,99487.31
2022-09-22T23:54:00.558Z,99488.16
2022-09-22T23:56:27.897Z,99483.34
2022-09-22T23:58:55.249Z,99488.81
